Time;durP1;ratioP1;P1;durP2;ratioP2;P2;SDS_P1;SDS_P2;PMS_P1;PMS_P2;Temp;Humidity;BMP_temperature;BMP_pressure;BME280_temperature;BME280_humidity;BME280_pressure;Samples;Min_cycle;Max_cycle;Signal;HPM_P1;HPM_P2
2020/12/22 00:01:19;;;;;;;3.33;2.55;;;10.00;99.90;;;;;;5015660;28;20030;-69
2020/12/22 00:03:45;;;;;;;6.38;2.55;;;10.00;99.90;;;;;;5015370;28;20100;-69
2020/12/22 00:06:21;;;;;;;4.80;2.55;;;10.00;99.90;;;;;;5014498;28;20363;-68
2020/12/22 00:08:47;;;;;;;2.92;2.45;;;9.90;99.90;;;;;;5017049;28;20512;-68
2020/12/22 00:11:13;;;;;;;6.15;2.60;;;10.00;99.90;;;;;;5014444;28;20125;-70
2020/12/22 00:13:39;;;;;;;4.07;2.47;;;9.90;99.90;;;;;;5015391;28;20042;-69
2020/12/22 00:16:04;;;;;;;4.05;2.15;;;9.90;99.90;;;;;;5015469;28;20832;-68
2020/12/22 00:18:30;;;;;;;4.32;1.92;;;9.90;99.90;;;;;;5015506;28;20038;-68
2020/12/22 00:20:55;;;;;;;4.22;2.00;;;10.00;99.90;;;;;;5016777;28;20049;-69
2020/12/22 00:23:21;;;;;;;4.80;2.00;;;10.00;99.90;;;;;;5014288;28;20128;-69
2020/12/22 00:25:48;;;;;;;3.00;1.77;;;10.10;99.90;;;;;;5014138;28;20121;-69
2020/12/22 00:28:14;;;;;;;2.38;1.50;;;10.10;99.90;;;;;;5014730;28;20041;-69
2020/12/22 00:30:41;;;;;;;3.63;1.50;;;10.10;99.90;;;;;;5015035;28;20041;-70
2020/12/22 00:33:07;;;;;;;2.13;1.45;;;10.10;99.90;;;;;;5014795;28;20026;-69
2020/12/22 00:35:33;;;;;;;2.10;1.40;;;10.10;99.90;;;;;;5016457;28;20040;-68
2020/12/22 00:37:59;;;;;;;2.30;1.52;;;10.10;99.90;;;;;;5014528;28;20034;-69
2020/12/22 00:40:25;;;;;;;3.55;1.70;;;10.10;99.90;;;;;;5014958;28;20030;-68
2020/12/22 00:42:51;;;;;;;1.70;1.33;;;10.10;99.90;;;;;;5014609;28;20173;-69
2020/12/22 00:45:18;;;;;;;6.28;1.77;;;10.10;99.90;;;;;;5014649;28;20021;-69
2020/12/22 00:47:44;;;;;;;1.70;1.20;;;10.10;99.90;;;;;;5016280;28;20022;-69
2020/12/22 00:50:10;;;;;;;1.77;1.48;;;10.10;99.90;;;;;;5014882;28;20403;-69
2020/12/22 00:52:35;;;;;;;1.10;1.00;;;10.20;99.90;;;;;;5014630;28;20042;-69
2020/12/22 00:55:01;;;;;;;3.00;1.40;;;10.20;99.90;;;;;;5014091;28;20057;-69
2020/12/22 00:57:27;;;;;;;1.42;0.70;;;10.20;99.90;;;;;;5014032;28;20046;-69
2020/12/22 00:59:52;;;;;;;1.90;0.65;;;10.20;99.90;;;;;;5015113;28;20100;-68
2020/12/22 01:02:18;;;;;;;0.88;0.68;;;10.20;99.90;;;;;;5014541;28;20034;-70
2020/12/22 01:04:44;;;;;;;1.65;0.77;;;10.20;99.90;;;;;;5014563;28;20052;-68
2020/12/22 01:07:09;;;;;;;2.00;0.50;;;10.30;99.90;;;;;;5014318;28;20034;-68
2020/12/22 01:09:35;;;;;;;0.88;0.45;;;10.30;99.90;;;;;;5014610;28;20480;-69
2020/12/22 01:12:01;;;;;;;0.80;0.47;;;10.30;99.90;;;;;;5014489;28;20041;-69
2020/12/22 01:14:26;;;;;;;3.20;0.60;;;10.30;99.90;;;;;;5015803;28;20080;-69
2020/12/22 01:16:55;;;;;;;2.25;0.68;;;10.30;99.90;;;;;;5014371;28;20030;-69
2020/12/22 01:19:20;;;;;;;1.65;0.80;;;10.30;99.90;;;;;;5013194;28;20290;-68
2020/12/22 01:21:50;;;;;;;1.40;0.70;;;10.40;99.90;;;;;;5014096;28;20026;-69
2020/12/22 01:24:15;;;;;;;1.55;0.50;;;10.40;99.90;;;;;;5014039;28;20025;-69
2020/12/22 01:26:41;;;;;;;2.75;0.63;;;10.40;99.90;;;;;;5015414;28;20041;-69
2020/12/22 01:29:07;;;;;;;3.13;0.60;;;10.40;99.90;;;;;;5014184;28;20030;-69
2020/12/22 01:31:32;;;;;;;1.33;0.68;;;10.50;99.90;;;;;;5014065;28;20038;-69
2020/12/22 01:33:58;;;;;;;0.47;0.47;;;10.50;99.90;;;;;;5013893;28;20065;-69
2020/12/22 01:36:25;;;;;;;0.82;0.60;;;10.50;99.90;;;;;;5013581;28;20061;-69
2020/12/22 01:38:51;;;;;;;0.60;0.50;;;10.50;99.90;;;;;;5015469;28;20531;-69
2020/12/22 01:41:18;;;;;;;2.95;0.57;;;10.50;99.90;;;;;;5013744;28;20042;-69
2020/12/22 01:44:00;;;;;;;1.92;0.73;;;10.50;99.90;;;;;;4996421;28;20042;-70
2020/12/22 01:46:33;;;;;;;0.70;0.50;;;10.50;99.90;;;;;;5013901;28;20037;-69
2020/12/22 01:49:00;;;;;;;1.38;0.73;;;10.50;99.90;;;;;;5013537;28;20030;-68
2020/12/22 01:51:28;;;;;;;2.65;0.57;;;10.60;99.90;;;;;;5012601;28;20042;-69
2020/12/22 01:53:55;;;;;;;2.08;0.70;;;10.60;99.90;;;;;;5014810;28;20301;-69
2020/12/22 01:56:21;;;;;;;1.83;0.60;;;10.60;99.90;;;;;;5013451;28;20049;-69
2020/12/22 01:58:46;;;;;;;1.33;0.77;;;10.60;99.90;;;;;;5013297;28;20034;-68
2020/12/22 02:01:12;;;;;;;0.77;0.63;;;10.60;99.90;;;;;;5013343;28;20049;-68
2020/12/22 02:03:38;;;;;;;0.40;0.40;;;10.60;99.90;;;;;;5013478;28;20365;-68
2020/12/22 02:06:04;;;;;;;0.40;0.40;;;10.60;99.90;;;;;;5013330;28;20026;-68
2020/12/22 02:08:29;;;;;;;1.33;0.52;;;10.70;99.90;;;;;;5013977;28;20041;-69
2020/12/22 02:10:55;;;;;;;0.77;0.50;;;10.60;99.90;;;;;;5013348;28;20040;-69
2020/12/22 02:13:20;;;;;;;0.60;0.30;;;10.70;99.90;;;;;;5013153;28;20361;-68
2020/12/22 02:15:46;;;;;;;0.40;0.40;;;10.70;99.90;;;;;;4995861;28;20112;-68
2020/12/22 02:18:12;;;;;;;0.40;0.40;;;10.70;99.90;;;;;;5012981;28;20058;-70
2020/12/22 02:20:40;;;;;;;1.80;0.50;;;10.70;99.90;;;;;;5014579;28;20026;-69
2020/12/22 02:23:06;;;;;;;1.27;0.32;;;10.70;99.90;;;;;;5012885;28;20037;-69
2020/12/22 02:25:32;;;;;;;1.17;0.17;;;10.70;99.90;;;;;;5013203;28;20030;-68
2020/12/22 02:27:57;;;;;;;1.38;0.50;;;10.70;99.90;;;;;;5012858;28;20499;-68
2020/12/22 02:30:24;;;;;;;0.32;0.25;;;10.80;99.90;;;;;;5012691;28;20570;-69
2020/12/22 02:32:50;;;;;;;0.47;0.40;;;10.80;99.90;;;;;;5014382;28;20050;-68
2020/12/22 02:35:16;;;;;;;1.00;0.30;;;10.80;99.90;;;;;;5012757;28;20423;-69
2020/12/22 02:37:41;;;;;;;0.15;0.10;;;10.80;99.90;;;;;;5012462;28;20038;-70
2020/12/22 02:40:07;;;;;;;0.80;0.47;;;10.80;99.90;;;;;;5012717;28;20423;-70
2020/12/22 02:42:32;;;;;;;3.42;0.60;;;10.80;99.90;;;;;;5012599;28;20073;-71
2020/12/22 02:44:58;;;;;;;1.15;0.30;;;10.80;99.90;;;;;;5014228;28;20030;-70
2020/12/22 02:47:24;;;;;;;1.13;0.40;;;10.90;99.90;;;;;;5012635;28;20435;-69
2020/12/22 02:49:49;;;;;;;0.68;0.30;;;10.80;99.90;;;;;;5012369;28;20379;-70
2020/12/22 02:52:15;;;;;;;1.10;0.40;;;10.80;99.90;;;;;;5012664;28;20041;-69
2020/12/22 02:54:41;;;;;;;0.40;0.30;;;10.90;99.90;;;;;;5012433;28;20103;-69
2020/12/22 02:57:06;;;;;;;0.20;0.20;;;10.90;99.90;;;;;;5012529;28;20167;-69
2020/12/22 02:59:32;;;;;;;1.20;0.95;;;10.90;99.90;;;;;;5014159;28;20368;-70
2020/12/22 03:01:57;;;;;;;0.85;0.20;;;10.90;99.90;;;;;;5012214;28;20487;-70
2020/12/22 03:04:23;;;;;;;0.52;0.30;;;10.90;99.90;;;;;;5012015;28;20033;-70
2020/12/22 03:06:49;;;;;;;0.30;0.30;;;10.90;99.90;;;;;;5011891;28;20040;-70
2020/12/22 03:09:15;;;;;;;0.20;0.20;;;10.90;99.90;;;;;;5010843;28;20344;-69
2020/12/22 03:11:40;;;;;;;0.13;0.13;;;11.00;99.90;;;;;;5012739;28;20060;-69
2020/12/22 03:14:06;;;;;;;0.73;0.30;;;11.00;99.90;;;;;;5012179;28;20038;-70
2020/12/22 03:16:32;;;;;;;0.57;0.35;;;11.00;99.90;;;;;;5011241;28;20045;-70
2020/12/22 03:18:57;;;;;;;0.20;0.20;;;11.00;99.90;;;;;;5011740;28;20030;-69
2020/12/22 03:21:23;;;;;;;0.20;0.20;;;11.10;99.90;;;;;;5010936;28;20040;-69
2020/12/22 03:23:49;;;;;;;1.77;0.20;;;11.10;99.90;;;;;;5013614;28;20022;-70
2020/12/22 03:26:14;;;;;;;2.08;0.22;;;11.10;99.90;;;;;;5011976;28;20273;-70
2020/12/22 03:28:40;;;;;;;0.88;0.20;;;11.10;99.90;;;;;;5010925;28;20045;-69
2020/12/22 03:31:06;;;;;;;1.02;0.20;;;11.10;99.90;;;;;;5011978;28;20033;-70
2020/12/22 03:33:31;;;;;;;0.73;0.25;;;11.10;99.90;;;;;;5012214;28;20042;-70
2020/12/22 03:35:57;;;;;;;0.38;0.20;;;11.20;99.90;;;;;;5013513;28;20026;-69
2020/12/22 03:38:22;;;;;;;1.75;0.30;;;11.10;99.90;;;;;;5011730;28;20048;-69
2020/12/22 03:40:48;;;;;;;0.20;0.20;;;11.20;99.90;;;;;;5011585;28;20030;-69
2020/12/22 03:43:14;;;;;;;0.95;0.25;;;11.20;99.90;;;;;;5011624;28;20141;-70
2020/12/22 03:45:42;;;;;;;0.43;0.35;;;11.30;99.90;;;;;;5010549;28;20105;-69
2020/12/22 03:48:08;;;;;;;0.30;0.30;;;11.30;99.90;;;;;;5010879;28;20018;-69
2020/12/22 03:50:34;;;;;;;0.17;0.17;;;11.30;99.90;;;;;;5013394;28;20037;-69
2020/12/22 03:53:00;;;;;;;0.63;0.10;;;11.40;99.90;;;;;;5010865;28;20073;-69
2020/12/22 03:55:26;;;;;;;0.30;0.30;;;11.40;99.90;;;;;;5011286;28;20046;-70
2020/12/22 03:57:52;;;;;;;1.52;0.25;;;11.40;99.90;;;;;;5011448;28;20444;-69
2020/12/22 04:00:17;;;;;;;0.88;0.25;;;11.50;99.90;;;;;;5010679;28;20097;-70
2020/12/22 04:02:43;;;;;;;0.77;0.20;;;11.50;99.90;;;;;;5013282;28;20026;-70
2020/12/22 04:05:10;;;;;;;0.52;0.17;;;11.50;99.90;;;;;;5011732;28;20086;-71
2020/12/22 04:07:35;;;;;;;0.08;0.08;;;11.50;99.90;;;;;;5011496;28;20042;-70
2020/12/22 04:10:02;;;;;;;2.17;0.20;;;11.50;99.90;;;;;;5011800;28;20383;-69
2020/12/22 04:12:28;;;;;;;2.75;0.30;;;11.50;99.90;;;;;;5010936;28;20057;-70
2020/12/22 04:14:54;;;;;;;0.20;0.20;;;11.50;99.90;;;;;;5012013;28;20448;-70
2020/12/22 04:17:19;;;;;;;0.68;0.20;;;11.50;99.90;;;;;;5011553;28;20368;-71
2020/12/22 04:19:45;;;;;;;0.03;0.03;;;11.60;99.90;;;;;;5011393;28;20112;-71
2020/12/22 04:22:10;;;;;;;0.38;0.28;;;11.60;99.90;;;;;;5011452;28;20038;-70
2020/12/22 04:24:36;;;;;;;0.25;0.20;;;11.60;99.90;;;;;;5011529;28;20046;-68
2020/12/22 04:27:02;;;;;;;0.20;0.20;;;11.60;99.90;;;;;;5011174;28;20026;-71
2020/12/22 04:29:27;;;;;;;0.10;0.10;;;11.60;99.90;;;;;;5013094;28;20052;-69
2020/12/22 04:31:53;;;;;;;0.43;0.30;;;11.60;99.90;;;;;;5013281;28;20467;-70
2020/12/22 04:34:19;;;;;;;1.92;0.20;;;11.70;99.90;;;;;;5015025;28;20049;-70
2020/12/22 04:36:44;;;;;;;0.73;0.20;;;11.70;99.90;;;;;;5014870;28;20088;-70
2020/12/22 04:39:10;;;;;;;2.88;0.30;;;11.70;99.90;;;;;;5015108;28;20467;-69
2020/12/22 04:41:36;;;;;;;0.20;0.20;;;11.80;99.90;;;;;;4999117;28;20040;-71
2020/12/22 04:44:02;;;;;;;2.45;0.52;;;11.80;99.90;;;;;;5014862;28;20034;-69
2020/12/22 04:46:31;;;;;;;0.80;0.20;;;11.80;99.90;;;;;;5014594;28;20049;-70
2020/12/22 04:48:58;;;;;;;1.10;0.20;;;11.80;99.90;;;;;;5014747;28;20034;-71
2020/12/22 04:51:24;;;;;;;1.88;0.30;;;11.90;99.90;;;;;;5014813;28;20026;-69
2020/12/22 04:53:51;;;;;;;0.25;0.22;;;11.80;99.90;;;;;;5016203;28;20098;-69
2020/12/22 04:56:19;;;;;;;0.20;0.20;;;11.80;99.90;;;;;;5014409;28;20061;-72
2020/12/22 04:58:44;;;;;;;0.38;0.30;;;11.90;99.90;;;;;;5014789;28;20038;-70
2020/12/22 05:01:10;;;;;;;0.20;0.20;;;11.90;99.90;;;;;;5014460;28;20480;-69
2020/12/22 05:03:36;;;;;;;1.10;0.30;;;11.80;99.90;;;;;;5014341;28;20606;-69
2020/12/22 05:06:02;;;;;;;1.08;0.50;;;12.00;99.90;;;;;;5014457;28;20040;-70
2020/12/22 05:08:28;;;;;;;0.40;0.30;;;12.00;99.90;;;;;;5016143;28;20032;-70
2020/12/22 05:10:54;;;;;;;0.22;0.20;;;12.10;99.90;;;;;;5014203;28;20033;-71
2020/12/22 05:13:21;;;;;;;0.20;0.20;;;12.10;99.90;;;;;;5014109;28;20030;-71
2020/12/22 05:15:50;;;;;;;0.40;0.40;;;12.10;99.90;;;;;;5012874;28;20077;-72
2020/12/22 05:18:19;;;;;;;0.47;0.32;;;12.30;99.90;;;;;;5013608;28;20080;-72
2020/12/22 05:20:46;;;;;;;0.68;0.47;;;12.30;99.90;;;;;;5014698;28;20022;-69
2020/12/22 05:23:14;;;;;;;1.27;0.60;;;12.50;99.90;;;;;;5013244;28;20030;-71
2020/12/22 05:25:41;;;;;;;1.63;0.60;;;12.60;99.90;;;;;;5013908;28;20117;-71
2020/12/22 05:28:08;;;;;;;1.25;1.05;;;12.70;99.90;;;;;;5014086;28;20034;-69
2020/12/22 05:30:36;;;;;;;1.42;0.70;;;12.80;99.90;;;;;;5013909;28;20030;-71
2020/12/22 05:33:04;;;;;;;4.25;0.80;;;12.90;99.90;;;;;;5013890;28;20463;-70
2020/12/22 05:35:41;;;;;;;0.98;0.90;;;12.90;99.90;;;;;;5014629;28;20029;-70
2020/12/22 05:38:07;;;;;;;0.70;0.70;;;13.00;99.90;;;;;;5013348;28;20113;-70
2020/12/22 05:40:34;;;;;;;0.80;0.80;;;13.10;99.90;;;;;;5013556;28;20120;-70
2020/12/22 05:43:00;;;;;;;0.73;0.73;;;13.10;99.90;;;;;;5012135;28;20120;-71
2020/12/22 05:45:34;;;;;;;1.42;0.80;;;13.20;99.90;;;;;;5013819;28;20042;-70
2020/12/22 05:48:00;;;;;;;1.13;1.08;;;13.30;99.90;;;;;;5013963;28;20026;-71
2020/12/22 05:50:27;;;;;;;3.08;1.45;;;13.30;99.90;;;;;;5012989;28;20408;-72
2020/12/22 05:52:54;;;;;;;2.65;1.20;;;13.40;99.90;;;;;;5013561;28;20026;-70
2020/12/22 05:55:30;;;;;;;1.93;1.10;;;13.40;99.90;;;;;;4996257;28;20415;-70
2020/12/22 05:58:07;;;;;;;2.95;1.65;;;13.40;99.90;;;;;;5013685;28;20400;-70
2020/12/22 06:00:34;;;;;;;2.03;1.42;;;13.50;99.90;;;;;;5012299;28;20096;-71
2020/12/22 06:03:05;;;;;;;1.77;1.52;;;13.60;99.90;;;;;;5014836;28;20049;-70
2020/12/22 06:05:34;;;;;;;1.60;1.50;;;13.60;99.90;;;;;;5013683;28;20116;-71
2020/12/22 06:08:00;;;;;;;2.88;1.48;;;13.60;99.90;;;;;;5013074;28;20467;-71
2020/12/22 06:10:26;;;;;;;1.58;1.48;;;13.70;99.90;;;;;;5012758;28;20041;-71
2020/12/22 06:12:57;;;;;;;4.55;1.60;;;13.70;99.90;;;;;;5011679;28;20095;-71
2020/12/22 06:15:24;;;;;;;4.82;1.25;;;13.70;99.90;;;;;;5012723;28;20073;-70
2020/12/22 06:17:49;;;;;;;1.73;1.63;;;13.70;99.90;;;;;;5014713;28;20018;-70
2020/12/22 06:20:20;;;;;;;2.95;1.95;;;13.80;99.90;;;;;;5013227;28;20452;-70
2020/12/22 06:22:45;;;;;;;2.88;1.85;;;13.80;99.90;;;;;;5012986;28;20046;-70
2020/12/22 06:25:11;;;;;;;2.25;1.52;;;13.80;99.90;;;;;;5012928;28;20045;-71
2020/12/22 06:27:37;;;;;;;1.95;1.80;;;13.80;99.90;;;;;;5012517;28;20034;-71
2020/12/22 06:30:03;;;;;;;5.43;2.17;;;13.70;99.90;;;;;;5012751;28;20072;-69
2020/12/22 06:32:29;;;;;;;2.90;2.28;;;13.70;99.90;;;;;;5014250;28;20018;-70
2020/12/22 06:35:29;;;;;;;3.63;2.33;;;13.70;99.90;;;;;;5011335;28;20055;-69
2020/12/22 06:37:55;;;;;;;3.75;2.55;;;13.70;99.90;;;;;;5008776;28;20030;-71
2020/12/22 06:40:54;;;;;;;5.35;2.53;;;13.70;99.90;;;;;;5012389;28;20034;-70
2020/12/22 06:43:39;;;;;;;2.60;2.40;;;13.70;99.90;;;;;;5012153;28;20038;-70
2020/12/22 06:46:07;;;;;;;6.07;2.70;;;13.80;99.90;;;;;;5012608;28;20053;-70
2020/12/22 06:48:42;;;;;;;;;;;13.70;99.90;;;;;;5013034;28;20121;-71
2020/12/22 06:51:22;;;;;;;3.38;3.03;;;13.80;99.90;;;;;;5011493;28;19996;-70
2020/12/22 06:53:47;;;;;;;4.90;2.15;;;13.80;99.90;;;;;;5012303;28;20029;-70
2020/12/22 06:56:13;;;;;;;4.95;2.40;;;13.80;99.90;;;;;;5011268;28;20050;-70
2020/12/22 06:58:44;;;;;;;4.93;2.63;;;13.80;99.90;;;;;;5012065;28;20081;-70
2020/12/22 07:01:25;;;;;;;2.97;2.00;;;13.80;99.90;;;;;;5010609;28;20037;-71
2020/12/22 07:03:52;;;;;;;4.05;2.92;;;13.80;99.90;;;;;;5012078;28;20364;-70
2020/12/22 07:06:51;;;;;;;2.95;1.70;;;13.90;99.90;;;;;;5012292;28;20030;-72
2020/12/22 07:09:22;;;;;;;3.67;1.70;;;13.90;99.90;;;;;;5012101;28;20030;-71
2020/12/22 07:11:50;;;;;;;2.38;1.50;;;13.90;99.90;;;;;;5014054;28;20032;-71
2020/12/22 07:14:18;;;;;;;3.63;1.85;;;13.90;99.90;;;;;;5010779;28;20056;-71
2020/12/22 07:16:52;;;;;;;1.83;1.27;;;14.00;99.90;;;;;;5011797;28;20523;-71
2020/12/22 07:19:23;;;;;;;2.33;1.23;;;14.00;99.90;;;;;;5011718;28;20034;-70
2020/12/22 07:21:51;;;;;;;2.13;1.58;;;14.00;99.90;;;;;;4994484;28;20045;-72
2020/12/22 07:24:17;;;;;;;2.47;1.17;;;13.90;99.90;;;;;;5011954;28;20286;-69
2020/12/22 07:26:43;;;;;;;2.55;1.40;;;14.00;99.90;;;;;;5012525;28;20033;-71
2020/12/22 07:29:08;;;;;;;3.10;1.30;;;14.00;99.90;;;;;;5011544;28;20400;-70
2020/12/22 07:31:34;;;;;;;3.13;1.77;;;14.00;99.90;;;;;;5011429;28;20520;-71
2020/12/22 07:34:05;;;;;;;2.45;1.27;;;14.00;99.90;;;;;;5010844;28;20456;-71
2020/12/22 07:36:31;;;;;;;2.05;1.40;;;14.00;99.90;;;;;;5011435;28;20456;-71
2020/12/22 07:39:13;;;;;;;2.25;1.38;;;14.00;99.90;;;;;;5012465;28;20578;-70
2020/12/22 07:41:39;;;;;;;2.47;1.30;;;14.00;99.90;;;;;;5012259;28;20475;-70
2020/12/22 07:44:10;;;;;;;2.00;1.40;;;14.00;99.90;;;;;;5011758;28;20072;-70
2020/12/22 07:46:36;;;;;;;2.90;1.70;;;14.00;99.90;;;;;;5012058;28;20588;-69
2020/12/22 07:49:03;;;;;;;1.58;1.20;;;14.00;99.90;;;;;;5011249;28;20045;-69
2020/12/22 07:51:29;;;;;;;1.02;0.98;;;14.00;99.90;;;;;;5011666;28;20034;-69
2020/12/22 07:54:06;;;;;;;2.63;1.20;;;14.00;99.90;;;;;;5013017;28;20389;-69
2020/12/22 07:56:37;;;;;;;3.83;1.20;;;14.10;99.90;;;;;;5010990;28;20262;-70
2020/12/22 07:59:08;;;;;;;1.25;1.13;;;14.10;99.90;;;;;;5010843;28;20113;-71
2020/12/22 08:01:45;;;;;;;1.55;1.33;;;14.00;99.90;;;;;;5011676;28;20129;-72
2020/12/22 08:04:25;;;;;;;4.43;1.15;;;14.10;99.90;;;;;;5011997;28;20046;-70
2020/12/22 08:06:57;;;;;;;2.42;1.27;;;14.10;99.90;;;;;;5015261;28;20074;-72
2020/12/22 08:09:43;;;;;;;1.55;1.35;;;14.10;99.90;;;;;;5014383;28;20099;-71
2020/12/22 08:12:10;;;;;;;1.92;1.10;;;14.10;99.90;;;;;;5014088;28;20033;-71
2020/12/22 08:14:39;;;;;;;4.05;1.38;;;14.10;99.90;;;;;;5017309;28;20434;-71
2020/12/22 08:17:34;;;;;;;1.58;1.10;;;14.10;99.90;;;;;;5015100;28;20044;-70
2020/12/22 08:20:01;;;;;;;2.65;1.80;;;14.10;99.90;;;;;;5012122;28;20100;-71
2020/12/22 08:22:28;;;;;;;1.38;0.90;;;14.10;99.90;;;;;;5015585;28;20045;-72
2020/12/22 08:24:55;;;;;;;0.70;0.70;;;14.10;99.90;;;;;;5013930;28;20490;-70
2020/12/22 08:27:22;;;;;;;1.95;1.00;;;14.20;99.90;;;;;;5015346;28;20041;-71
2020/12/22 08:29:48;;;;;;;2.60;1.30;;;14.10;99.90;;;;;;5015815;28;20030;-71
2020/12/22 08:32:22;;;;;;;0.70;0.57;;;14.20;99.90;;;;;;5013851;28;20113;-69
2020/12/22 08:34:52;;;;;;;3.50;0.70;;;14.20;99.90;;;;;;5015220;28;20050;-69
2020/12/22 08:37:25;;;;;;;1.02;0.50;;;14.10;99.90;;;;;;5015237;28;20124;-69
2020/12/22 08:39:51;;;;;;;1.13;0.73;;;14.20;99.90;;;;;;5015055;28;20337;-70
2020/12/22 08:42:18;;;;;;;3.38;0.90;;;14.20;99.90;;;;;;5014988;28;20464;-69
2020/12/22 08:44:49;;;;;;;0.83;0.70;;;14.10;99.90;;;;;;5016653;28;20034;-75
2020/12/22 08:47:16;;;;;;;2.53;0.60;;;14.10;99.90;;;;;;5014847;28;20322;-70
2020/12/22 08:49:42;;;;;;;2.17;0.80;;;14.10;99.90;;;;;;5014549;28;20121;-70
2020/12/22 08:52:18;;;;;;;2.72;0.80;;;14.20;99.90;;;;;;5013753;28;20034;-70
2020/12/22 08:54:45;;;;;;;1.27;0.60;;;14.20;99.90;;;;;;5014924;28;20042;-72
2020/12/22 08:57:18;;;;;;;2.78;0.70;;;14.20;99.90;;;;;;5015067;28;20471;-71
2020/12/22 08:59:45;;;;;;;1.10;0.60;;;14.20;99.90;;;;;;5016348;28;20105;-69
2020/12/22 09:02:31;;;;;;;3.75;0.80;;;14.20;99.90;;;;;;5014742;28;20096;-71
2020/12/22 09:04:58;;;;;;;4.03;0.95;;;14.20;99.90;;;;;;5013597;28;20367;-69
2020/12/22 09:07:25;;;;;;;0.88;0.63;;;14.20;99.90;;;;;;5014562;28;20030;-78
2020/12/22 09:09:52;;;;;;;4.68;0.77;;;14.30;99.90;;;;;;5013578;28;20100;-72
2020/12/22 09:12:18;;;;;;;2.60;0.73;;;14.30;99.90;;;;;;5014648;28;20403;-72
2020/12/22 09:14:48;;;;;;;4.65;1.98;;;14.30;99.90;;;;;;5015928;28;20037;-72
2020/12/22 09:17:34;;;;;;;3.95;0.93;;;14.40;99.90;;;;;;5013864;28;20041;-75
2020/12/22 09:20:00;;;;;;;2.35;0.68;;;14.40;99.90;;;;;;5014566;28;20030;-76
2020/12/22 09:22:28;;;;;;;4.50;0.90;;;14.40;99.90;;;;;;5013517;28;20045;-70
2020/12/22 09:24:58;;;;;;;2.35;0.70;;;14.40;99.90;;;;;;5014300;28;20052;-69
2020/12/22 09:27:30;;;;;;;3.80;0.68;;;14.50;99.90;;;;;;5014156;28;20041;-72
2020/12/22 09:29:57;;;;;;;3.58;0.73;;;14.50;99.90;;;;;;5015803;28;20146;-70
2020/12/22 09:32:23;;;;;;;2.45;0.68;;;14.50;99.90;;;;;;5014437;28;20505;-72
2020/12/22 09:34:49;;;;;;;1.75;0.80;;;14.50;99.90;;;;;;5013638;28;20448;-73
2020/12/22 09:37:15;;;;;;;2.47;0.52;;;14.60;99.90;;;;;;5013840;28;20045;-73
2020/12/22 09:39:41;;;;;;;4.13;0.75;;;14.50;99.90;;;;;;5014242;28;20468;-71
2020/12/22 09:42:07;;;;;;;4.93;0.73;;;14.50;99.90;;;;;;5014441;28;20040;-71
2020/12/22 09:44:34;;;;;;;4.88;0.90;;;14.60;99.90;;;;;;5014553;28;20018;-68
2020/12/22 09:47:00;;;;;;;5.37;0.80;;;14.60;99.90;;;;;;5013997;28;20052;-70
2020/12/22 09:49:26;;;;;;;2.63;0.60;;;14.60;99.90;;;;;;5013626;28;20041;-68
2020/12/22 09:51:52;;;;;;;4.05;0.95;;;14.50;99.90;;;;;;5013651;28;20369;-68
2020/12/22 09:54:19;;;;;;;3.30;0.90;;;14.50;99.90;;;;;;5013092;28;20469;-68
2020/12/22 09:56:45;;;;;;;3.10;1.02;;;14.50;99.90;;;;;;5014017;28;20129;-68
2020/12/22 09:59:11;;;;;;;3.10;0.90;;;14.50;99.90;;;;;;5013885;28;20407;-69
2020/12/22 10:01:37;;;;;;;8.70;1.38;;;14.60;99.90;;;;;;5012328;28;20467;-69
2020/12/22 10:04:03;;;;;;;3.95;0.82;;;14.60;99.90;;;;;;5012150;28;20056;-75
2020/12/22 10:06:29;;;;;;;8.13;1.02;;;14.60;99.90;;;;;;5013486;28;20053;-74
2020/12/22 10:08:55;;;;;;;5.20;1.88;;;14.70;99.90;;;;;;5013666;28;20029;-73
2020/12/22 10:11:21;;;;;;;2.08;1.00;;;14.70;99.90;;;;;;5012630;28;20049;-75
2020/12/22 10:13:47;;;;;;;2.88;1.25;;;14.70;99.90;;;;;;5013154;28;20087;-75
2020/12/22 10:16:15;;;;;;;2.25;0.90;;;14.80;99.90;;;;;;5012870;28;20038;-74
2020/12/22 10:18:41;;;;;;;3.25;0.65;;;14.80;99.90;;;;;;5013020;28;20041;-67
2020/12/22 10:21:11;;;;;;;1.95;0.82;;;14.90;99.90;;;;;;5011965;28;20030;-67
2020/12/22 10:23:38;;;;;;;1.75;0.80;;;14.90;99.90;;;;;;5014482;28;20050;-69
2020/12/22 10:26:06;;;;;;;2.75;0.80;;;14.90;99.90;;;;;;5011951;28;20628;-69
2020/12/22 10:28:34;;;;;;;4.55;1.10;;;14.80;99.90;;;;;;5011976;28;20061;-69
2020/12/22 10:31:00;;;;;;;4.10;1.25;;;14.90;99.90;;;;;;5013057;28;20117;-69
2020/12/22 10:33:26;;;;;;;3.85;1.10;;;14.80;99.90;;;;;;5012517;28;20041;-69
2020/12/22 10:35:52;;;;;;;1.27;0.85;;;14.80;99.90;;;;;;5013920;28;20376;-69
2020/12/22 10:38:18;;;;;;;4.78;0.85;;;14.80;99.90;;;;;;5012388;28;20033;-70
2020/12/22 10:40:44;;;;;;;1.63;0.75;;;14.80;99.90;;;;;;5012564;28;20030;-69
2020/12/22 10:43:10;;;;;;;4.32;0.88;;;14.80;99.90;;;;;;5011585;28;20356;-68
2020/12/22 10:45:36;;;;;;;3.00;1.02;;;14.80;99.90;;;;;;5011646;28;20116;-67
2020/12/22 10:48:03;;;;;;;1.85;0.80;;;14.80;99.90;;;;;;5012521;28;20455;-68
2020/12/22 10:50:28;;;;;;;4.97;1.25;;;14.90;99.90;;;;;;5014023;28;20026;-69
2020/12/22 10:52:54;;;;;;;2.55;1.27;;;14.90;99.90;;;;;;5012370;28;20232;-68
2020/12/22 10:55:20;;;;;;;1.92;1.52;;;14.90;99.90;;;;;;5011798;28;20046;-69
2020/12/22 10:57:46;;;;;;;2.95;1.40;;;15.00;99.90;;;;;;5012372;28;20029;-69
2020/12/22 11:00:12;;;;;;;2.40;1.25;;;15.00;99.90;;;;;;5012364;28;20487;-68
2020/12/22 11:02:39;;;;;;;1.60;0.80;;;15.00;99.90;;;;;;5013899;28;20104;-69
2020/12/22 11:05:05;;;;;;;4.53;0.83;;;15.00;99.90;;;;;;5012461;28;20034;-69
2020/12/22 11:07:40;;;;;;;3.05;1.17;;;15.00;99.90;;;;;;5012219;28;20293;-70
2020/12/22 11:10:06;;;;;;;3.72;1.10;;;15.00;99.90;;;;;;5012083;28;20037;-69
2020/12/22 11:12:31;;;;;;;5.00;1.27;;;15.00;99.90;;;;;;5011851;28;20513;-69
2020/12/22 11:14:59;;;;;;;2.40;1.23;;;15.00;99.90;;;;;;5013381;28;20482;-69
2020/12/22 11:17:25;;;;;;;3.38;1.00;;;14.90;99.90;;;;;;5011977;28;20069;-68
2020/12/22 11:19:51;;;;;;;1.65;1.02;;;14.90;99.90;;;;;;5012138;28;20037;-70
2020/12/22 11:22:17;;;;;;;1.95;1.05;;;15.00;99.90;;;;;;5012045;28;20040;-72
2020/12/22 11:24:42;;;;;;;1.95;1.00;;;15.20;99.90;;;;;;5011798;28;20029;-70
2020/12/22 11:27:08;;;;;;;1.80;0.90;;;15.30;99.90;;;;;;5011477;28;20026;-72
2020/12/22 11:29:34;;;;;;;4.43;1.88;;;15.40;99.90;;;;;;5013432;28;20026;-71
2020/12/22 11:31:59;;;;;;;3.40;0.77;;;15.60;99.90;;;;;;5011974;28;20042;-73
2020/12/22 11:34:25;;;;;;;4.13;0.93;;;15.70;99.90;;;;;;5010557;28;20076;-70
2020/12/22 11:36:53;;;;;;;2.58;0.82;;;15.60;99.90;;;;;;5011837;28;20038;-73
2020/12/22 11:39:20;;;;;;;5.95;1.35;;;15.70;99.90;;;;;;5011281;28;20029;-73
2020/12/22 11:41:46;;;;;;;1.35;0.68;;;15.60;99.90;;;;;;5017077;28;20033;-72
2020/12/22 11:44:12;;;;;;;1.08;0.68;;;15.60;99.90;;;;;;5015701;28;20379;-71
2020/12/22 11:46:38;;;;;;;2.03;0.90;;;15.40;99.90;;;;;;5015665;28;20041;-70
2020/12/22 11:49:05;;;;;;;6.68;1.25;;;15.40;99.90;;;;;;5015501;28;20380;-72
2020/12/22 11:51:30;;;;;;;1.98;0.77;;;15.30;99.90;;;;;;4996434;28;20141;-68
2020/12/22 11:53:56;;;;;;;1.85;0.95;;;15.20;99.90;;;;;;4997520;28;20409;-66
2020/12/22 11:56:22;;;;;;;4.32;1.00;;;15.00;99.90;;;;;;4996010;28;20034;-69
2020/12/22 11:58:48;;;;;;;3.78;1.00;;;14.80;99.90;;;;;;4995732;28;20038;-71
2020/12/22 12:01:13;;;;;;;7.07;1.83;;;14.70;99.90;;;;;;4995893;28;20041;-68
2020/12/22 12:03:41;;;;;;;4.18;1.27;;;14.60;99.90;;;;;;4995726;28;20081;-68
2020/12/22 12:06:10;;;;;;;4.07;0.85;;;14.60;99.90;;;;;;4995908;28;20070;-68
2020/12/22 12:08:37;;;;;;;2.67;0.98;;;14.40;99.90;;;;;;4997281;28;20046;-65
2020/12/22 12:11:03;;;;;;;4.90;1.25;;;14.30;99.90;;;;;;4994592;28;20041;-68
2020/12/22 12:13:29;;;;;;;3.53;1.15;;;14.30;99.90;;;;;;4995396;28;20038;-65
2020/12/22 12:15:54;;;;;;;3.55;1.02;;;14.30;99.90;;;;;;4995057;28;20056;-66
2020/12/22 12:18:20;;;;;;;3.13;1.30;;;14.30;99.90;;;;;;4995826;28;22720;-66
2020/12/22 12:20:46;;;;;;;6.35;1.40;;;14.30;99.90;;;;;;4996174;28;20026;-66
2020/12/22 12:23:11;;;;;;;5.22;1.05;;;14.30;99.90;;;;;;4995762;28;20486;-66
2020/12/22 12:25:37;;;;;;;5.57;1.55;;;14.20;99.90;;;;;;4995665;28;20045;-67
2020/12/22 12:28:03;;;;;;;7.68;1.52;;;14.20;99.90;;;;;;4994271;28;20026;-66
2020/12/22 12:30:28;;;;;;;4.32;1.20;;;14.30;99.90;;;;;;4995796;28;20360;-67
2020/12/22 12:32:54;;;;;;;2.55;0.98;;;14.20;99.90;;;;;;4996911;28;20392;-66
2020/12/22 12:35:19;;;;;;;3.13;1.20;;;14.20;99.90;;;;;;4995533;28;20031;-66
2020/12/22 12:37:45;;;;;;;3.25;1.23;;;14.20;99.90;;;;;;4995065;28;20100;-66
2020/12/22 12:40:11;;;;;;;2.53;1.17;;;14.20;99.90;;;;;;4995312;28;20030;-65
2020/12/22 12:42:37;;;;;;;4.82;1.17;;;14.20;99.90;;;;;;4995226;28;20417;-65
2020/12/22 12:45:03;;;;;;;7.60;1.33;;;14.20;99.90;;;;;;4994915;28;20030;-65
2020/12/22 12:47:29;;;;;;;4.85;1.27;;;14.20;99.90;;;;;;4996658;28;20460;-64
2020/12/22 12:49:55;;;;;;;4.35;1.27;;;14.10;99.90;;;;;;4994789;28;20108;-66